sensor_id;sensor_type;location;lat;lon;timestamp;P1;durP1;ratioP1;P2;durP2;ratioP2
13419;SDS011;6781;58.440;15.470;2023-07-09T00:00:10;3.65;;;3.35;;
13419;SDS011;6781;58.440;15.470;2023-07-09T00:02:40;3.20;;;2.92;;
13419;SDS011;6781;58.440;15.470;2023-07-09T00:05:11;3.80;;;2.80;;
13419;SDS011;6781;58.440;15.470;2023-07-09T00:07:42;3.17;;;2.75;;
13419;SDS011;6781;58.440;15.470;2023-07-09T00:10:15;3.40;;;2.60;;
13419;SDS011;6781;58.440;15.470;2023-07-09T00:12:43;2.80;;;2.53;;
13419;SDS011;6781;58.440;15.470;2023-07-09T00:15:11;6.35;;;3.25;;
13419;SDS011;6781;58.440;15.470;2023-07-09T00:17:41;3.25;;;2.95;;
13419;SDS011;6781;58.440;15.470;2023-07-09T00:20:11;2.83;;;2.63;;
13419;SDS011;6781;58.440;15.470;2023-07-09T00:22:40;3.13;;;2.83;;
13419;SDS011;6781;58.440;15.470;2023-07-09T00:25:17;3.72;;;2.92;;
13419;SDS011;6781;58.440;15.470;2023-07-09T00:27:45;3.67;;;3.35;;
13419;SDS011;6781;58.440;15.470;2023-07-09T00:30:15;4.90;;;3.17;;
13419;SDS011;6781;58.440;15.470;2023-07-09T00:32:44;2.80;;;2.60;;
13419;SDS011;6781;58.440;15.470;2023-07-09T00:35:12;3.65;;;3.17;;
13419;SDS011;6781;58.440;15.470;2023-07-09T00:37:40;3.58;;;2.80;;
13419;SDS011;6781;58.440;15.470;2023-07-09T00:40:10;3.05;;;2.72;;
13419;SDS011;6781;58.440;15.470;2023-07-09T00:42:44;3.00;;;2.70;;
13419;SDS011;6781;58.440;15.470;2023-07-09T00:45:19;3.95;;;3.00;;
13419;SDS011;6781;58.440;15.470;2023-07-09T00:47:48;3.65;;;3.10;;
13419;SDS011;6781;58.440;15.470;2023-07-09T00:50:29;3.15;;;2.95;;
13419;SDS011;6781;58.440;15.470;2023-07-09T00:53:02;3.47;;;2.55;;
13419;SDS011;6781;58.440;15.470;2023-07-09T00:55:37;3.42;;;3.05;;
13419;SDS011;6781;58.440;15.470;2023-07-09T00:58:09;3.55;;;3.25;;
13419;SDS011;6781;58.440;15.470;2023-07-09T01:00:41;2.80;;;2.60;;
13419;SDS011;6781;58.440;15.470;2023-07-09T01:03:15;3.72;;;2.88;;
13419;SDS011;6781;58.440;15.470;2023-07-09T01:05:50;3.45;;;2.90;;
13419;SDS011;6781;58.440;15.470;2023-07-09T01:08:20;2.80;;;2.60;;
13419;SDS011;6781;58.440;15.470;2023-07-09T01:10:55;3.38;;;2.60;;
13419;SDS011;6781;58.440;15.470;2023-07-09T01:13:24;3.13;;;2.72;;
13419;SDS011;6781;58.440;15.470;2023-07-09T01:15:52;3.38;;;3.08;;
13419;SDS011;6781;58.440;15.470;2023-07-09T01:18:21;3.85;;;3.17;;
13419;SDS011;6781;58.440;15.470;2023-07-09T01:20:50;2.97;;;2.72;;
13419;SDS011;6781;58.440;15.470;2023-07-09T01:23:20;3.03;;;2.80;;
13419;SDS011;6781;58.440;15.470;2023-07-09T01:25:49;3.72;;;2.70;;
13419;SDS011;6781;58.440;15.470;2023-07-09T01:28:17;4.13;;;3.08;;
13419;SDS011;6781;58.440;15.470;2023-07-09T01:30:45;3.35;;;3.05;;
13419;SDS011;6781;58.440;15.470;2023-07-09T01:33:14;4.22;;;3.20;;
13419;SDS011;6781;58.440;15.470;2023-07-09T01:35:42;3.58;;;2.80;;
13419;SDS011;6781;58.440;15.470;2023-07-09T01:38:09;3.35;;;3.08;;
13419;SDS011;6781;58.440;15.470;2023-07-09T01:40:38;3.80;;;2.85;;
13419;SDS011;6781;58.440;15.470;2023-07-09T01:43:05;3.65;;;3.00;;
13419;SDS011;6781;58.440;15.470;2023-07-09T01:45:33;3.55;;;3.22;;
13419;SDS011;6781;58.440;15.470;2023-07-09T01:48:02;3.72;;;3.42;;
13419;SDS011;6781;58.440;15.470;2023-07-09T01:50:29;3.30;;;2.97;;
13419;SDS011;6781;58.440;15.470;2023-07-09T01:52:56;3.85;;;3.05;;
13419;SDS011;6781;58.440;15.470;2023-07-09T01:55:25;3.55;;;2.65;;
13419;SDS011;6781;58.440;15.470;2023-07-09T01:57:56;4.85;;;2.40;;
13419;SDS011;6781;58.440;15.470;2023-07-09T02:00:24;3.47;;;2.97;;
13419;SDS011;6781;58.440;15.470;2023-07-09T02:02:51;3.20;;;2.50;;
13419;SDS011;6781;58.440;15.470;2023-07-09T02:07:55;3.20;;;2.75;;
13419;SDS011;6781;58.440;15.470;2023-07-09T02:10:22;2.60;;;2.40;;
13419;SDS011;6781;58.440;15.470;2023-07-09T02:12:49;4.00;;;2.80;;
13419;SDS011;6781;58.440;15.470;2023-07-09T02:15:18;2.88;;;2.60;;
13419;SDS011;6781;58.440;15.470;2023-07-09T02:17:45;3.00;;;2.60;;
13419;SDS011;6781;58.440;15.470;2023-07-09T02:20:12;2.88;;;2.42;;
13419;SDS011;6781;58.440;15.470;2023-07-09T02:22:40;2.85;;;2.60;;
13419;SDS011;6781;58.440;15.470;2023-07-09T02:25:10;3.08;;;2.88;;
13419;SDS011;6781;58.440;15.470;2023-07-09T02:27:37;2.97;;;2.78;;
13419;SDS011;6781;58.440;15.470;2023-07-09T02:30:05;4.55;;;2.97;;
13419;SDS011;6781;58.440;15.470;2023-07-09T02:32:35;5.40;;;2.75;;
13419;SDS011;6781;58.440;15.470;2023-07-09T02:35:02;7.82;;;2.80;;
13419;SDS011;6781;58.440;15.470;2023-07-09T02:37:29;2.70;;;2.50;;
13419;SDS011;6781;58.440;15.470;2023-07-09T02:39:57;4.13;;;2.95;;
13419;SDS011;6781;58.440;15.470;2023-07-09T02:42:25;2.58;;;2.40;;
13419;SDS011;6781;58.440;15.470;2023-07-09T02:44:52;3.38;;;3.08;;
13419;SDS011;6781;58.440;15.470;2023-07-09T02:47:19;3.25;;;2.90;;
13419;SDS011;6781;58.440;15.470;2023-07-09T02:49:47;3.33;;;2.70;;
13419;SDS011;6781;58.440;15.470;2023-07-09T02:52:15;3.00;;;2.80;;
13419;SDS011;6781;58.440;15.470;2023-07-09T02:54:42;3.22;;;2.90;;
13419;SDS011;6781;58.440;15.470;2023-07-09T02:57:09;4.00;;;2.70;;
13419;SDS011;6781;58.440;15.470;2023-07-09T02:59:36;2.90;;;2.63;;
13419;SDS011;6781;58.440;15.470;2023-07-09T03:02:03;3.33;;;2.83;;
13419;SDS011;6781;58.440;15.470;2023-07-09T03:04:31;6.35;;;3.15;;
13419;SDS011;6781;58.440;15.470;2023-07-09T03:07:00;4.07;;;3.00;;
13419;SDS011;6781;58.440;15.470;2023-07-09T03:09:29;3.08;;;2.78;;
13419;SDS011;6781;58.440;15.470;2023-07-09T03:11:56;3.28;;;2.97;;
13419;SDS011;6781;58.440;15.470;2023-07-09T03:14:23;3.00;;;2.70;;
13419;SDS011;6781;58.440;15.470;2023-07-09T03:16:50;2.78;;;2.58;;
13419;SDS011;6781;58.440;15.470;2023-07-09T03:19:17;4.18;;;3.33;;
13419;SDS011;6781;58.440;15.470;2023-07-09T03:21:46;3.33;;;3.08;;
13419;SDS011;6781;58.440;15.470;2023-07-09T03:24:15;4.72;;;2.90;;
13419;SDS011;6781;58.440;15.470;2023-07-09T03:26:43;3.30;;;3.00;;
13419;SDS011;6781;58.440;15.470;2023-07-09T03:29:10;3.17;;;2.88;;
13419;SDS011;6781;58.440;15.470;2023-07-09T03:31:38;3.40;;;2.83;;
13419;SDS011;6781;58.440;15.470;2023-07-09T03:34:05;3.22;;;2.92;;
13419;SDS011;6781;58.440;15.470;2023-07-09T03:36:35;4.13;;;3.38;;
13419;SDS011;6781;58.440;15.470;2023-07-09T03:39:03;4.07;;;2.90;;
13419;SDS011;6781;58.440;15.470;2023-07-09T03:41:32;3.13;;;2.92;;
13419;SDS011;6781;58.440;15.470;2023-07-09T03:44:01;3.30;;;2.90;;
13419;SDS011;6781;58.440;15.470;2023-07-09T03:46:31;2.92;;;2.72;;
13419;SDS011;6781;58.440;15.470;2023-07-09T03:48:58;5.07;;;2.78;;
13419;SDS011;6781;58.440;15.470;2023-07-09T03:51:26;2.80;;;2.60;;
13419;SDS011;6781;58.440;15.470;2023-07-09T03:53:53;3.35;;;2.72;;
13419;SDS011;6781;58.440;15.470;2023-07-09T03:56:20;3.30;;;3.00;;
13419;SDS011;6781;58.440;15.470;2023-07-09T03:58:49;4.05;;;2.90;;
13419;SDS011;6781;58.440;15.470;2023-07-09T04:01:16;3.55;;;3.20;;
13419;SDS011;6781;58.440;15.470;2023-07-09T04:03:43;3.47;;;2.95;;
13419;SDS011;6781;58.440;15.470;2023-07-09T04:06:11;3.22;;;2.88;;
13419;SDS011;6781;58.440;15.470;2023-07-09T04:08:38;3.53;;;3.22;;
13419;SDS011;6781;58.440;15.470;2023-07-09T04:11:05;3.38;;;3.10;;
13419;SDS011;6781;58.440;15.470;2023-07-09T04:13:33;3.85;;;2.78;;
13419;SDS011;6781;58.440;15.470;2023-07-09T04:16:03;3.67;;;3.38;;
13419;SDS011;6781;58.440;15.470;2023-07-09T04:18:30;3.42;;;3.13;;
13419;SDS011;6781;58.440;15.470;2023-07-09T04:20:57;3.67;;;3.40;;
13419;SDS011;6781;58.440;15.470;2023-07-09T04:23:24;4.05;;;3.00;;
13419;SDS011;6781;58.440;15.470;2023-07-09T04:25:51;3.28;;;2.97;;
13419;SDS011;6781;58.440;15.470;2023-07-09T04:28:19;3.33;;;3.08;;
13419;SDS011;6781;58.440;15.470;2023-07-09T04:30:46;4.57;;;3.00;;
13419;SDS011;6781;58.440;15.470;2023-07-09T04:33:16;2.72;;;2.53;;
13419;SDS011;6781;58.440;15.470;2023-07-09T04:35:44;3.90;;;2.97;;
13419;SDS011;6781;58.440;15.470;2023-07-09T04:38:11;4.10;;;2.97;;
13419;SDS011;6781;58.440;15.470;2023-07-09T04:40:38;4.28;;;3.10;;
13419;SDS011;6781;58.440;15.470;2023-07-09T04:43:05;3.88;;;3.58;;
13419;SDS011;6781;58.440;15.470;2023-07-09T04:45:32;3.30;;;2.80;;
13419;SDS011;6781;58.440;15.470;2023-07-09T04:47:59;3.20;;;3.00;;
13419;SDS011;6781;58.440;15.470;2023-07-09T04:50:28;3.83;;;2.92;;
13419;SDS011;6781;58.440;15.470;2023-07-09T04:52:55;4.25;;;3.15;;
13419;SDS011;6781;58.440;15.470;2023-07-09T04:55:22;3.55;;;3.25;;
13419;SDS011;6781;58.440;15.470;2023-07-09T04:57:50;3.53;;;3.00;;
13419;SDS011;6781;58.440;15.470;2023-07-09T05:00:17;5.28;;;3.05;;
13419;SDS011;6781;58.440;15.470;2023-07-09T05:02:44;3.58;;;2.70;;
13419;SDS011;6781;58.440;15.470;2023-07-09T05:05:11;3.60;;;3.15;;
13419;SDS011;6781;58.440;15.470;2023-07-09T05:07:41;3.10;;;2.90;;
13419;SDS011;6781;58.440;15.470;2023-07-09T05:10:08;3.50;;;2.92;;
13419;SDS011;6781;58.440;15.470;2023-07-09T05:12:46;3.30;;;3.00;;
13419;SDS011;6781;58.440;15.470;2023-07-09T05:15:15;3.10;;;2.85;;
13419;SDS011;6781;58.440;15.470;2023-07-09T05:17:43;5.65;;;3.25;;
13419;SDS011;6781;58.440;15.470;2023-07-09T05:20:11;3.47;;;3.05;;
13419;SDS011;6781;58.440;15.470;2023-07-09T05:22:38;3.92;;;3.38;;
13419;SDS011;6781;58.440;15.470;2023-07-09T05:25:07;4.97;;;3.05;;
13419;SDS011;6781;58.440;15.470;2023-07-09T05:27:34;3.40;;;3.10;;
13419;SDS011;6781;58.440;15.470;2023-07-09T05:30:01;3.45;;;3.15;;
13419;SDS011;6781;58.440;15.470;2023-07-09T05:32:29;3.97;;;3.38;;
13419;SDS011;6781;58.440;15.470;2023-07-09T05:34:57;4.63;;;3.53;;
13419;SDS011;6781;58.440;15.470;2023-07-09T05:37:23;3.00;;;2.80;;
13419;SDS011;6781;58.440;15.470;2023-07-09T05:39:50;6.60;;;3.17;;
13419;SDS011;6781;58.440;15.470;2023-07-09T05:42:19;4.00;;;3.20;;
13419;SDS011;6781;58.440;15.470;2023-07-09T05:44:46;3.60;;;3.30;;
13419;SDS011;6781;58.440;15.470;2023-07-09T05:47:13;4.20;;;3.15;;
13419;SDS011;6781;58.440;15.470;2023-07-09T05:49:40;3.55;;;3.08;;
13419;SDS011;6781;58.440;15.470;2023-07-09T05:52:07;3.58;;;3.10;;
13419;SDS011;6781;58.440;15.470;2023-07-09T05:54:34;4.05;;;3.53;;
13419;SDS011;6781;58.440;15.470;2023-07-09T05:57:01;3.78;;;2.90;;
13419;SDS011;6781;58.440;15.470;2023-07-09T05:59:30;3.63;;;3.33;;
13419;SDS011;6781;58.440;15.470;2023-07-09T06:01:57;3.83;;;3.13;;
13419;SDS011;6781;58.440;15.470;2023-07-09T06:04:25;4.20;;;3.63;;
13419;SDS011;6781;58.440;15.470;2023-07-09T06:06:52;4.57;;;3.42;;
13419;SDS011;6781;58.440;15.470;2023-07-09T06:09:19;3.60;;;3.30;;
13419;SDS011;6781;58.440;15.470;2023-07-09T06:11:46;3.83;;;3.53;;
13419;SDS011;6781;58.440;15.470;2023-07-09T06:14:13;3.60;;;3.30;;
13419;SDS011;6781;58.440;15.470;2023-07-09T06:16:44;5.30;;;3.65;;
13419;SDS011;6781;58.440;15.470;2023-07-09T06:19:11;4.35;;;3.30;;
13419;SDS011;6781;58.440;15.470;2023-07-09T06:21:38;4.70;;;2.95;;
13419;SDS011;6781;58.440;15.470;2023-07-09T06:24:05;4.63;;;2.97;;
13419;SDS011;6781;58.440;15.470;2023-07-09T06:26:33;3.70;;;3.30;;
13419;SDS011;6781;58.440;15.470;2023-07-09T06:29:00;3.85;;;3.38;;
13419;SDS011;6781;58.440;15.470;2023-07-09T06:31:27;4.13;;;3.13;;
13419;SDS011;6781;58.440;15.470;2023-07-09T06:33:56;3.72;;;3.05;;
13419;SDS011;6781;58.440;15.470;2023-07-09T06:36:25;4.90;;;3.25;;
13419;SDS011;6781;58.440;15.470;2023-07-09T06:38:52;3.65;;;3.30;;
13419;SDS011;6781;58.440;15.470;2023-07-09T06:41:23;3.40;;;3.10;;
13419;SDS011;6781;58.440;15.470;2023-07-09T06:43:50;3.80;;;2.78;;
13419;SDS011;6781;58.440;15.470;2023-07-09T06:46:18;3.03;;;2.80;;
13419;SDS011;6781;58.440;15.470;2023-07-09T06:48:45;3.22;;;2.83;;
13419;SDS011;6781;58.440;15.470;2023-07-09T06:51:14;5.32;;;3.20;;
13419;SDS011;6781;58.440;15.470;2023-07-09T06:53:42;4.20;;;2.85;;
13419;SDS011;6781;58.440;15.470;2023-07-09T06:56:13;3.67;;;2.97;;
13419;SDS011;6781;58.440;15.470;2023-07-09T06:58:40;3.28;;;2.97;;
13419;SDS011;6781;58.440;15.470;2023-07-09T07:01:11;3.17;;;2.75;;
13419;SDS011;6781;58.440;15.470;2023-07-09T07:03:38;3.17;;;2.97;;
13419;SDS011;6781;58.440;15.470;2023-07-09T07:06:05;3.00;;;2.80;;
13419;SDS011;6781;58.440;15.470;2023-07-09T07:08:34;3.42;;;3.10;;
13419;SDS011;6781;58.440;15.470;2023-07-09T07:11:02;3.13;;;2.90;;
13419;SDS011;6781;58.440;15.470;2023-07-09T07:13:32;3.35;;;3.00;;
13419;SDS011;6781;58.440;15.470;2023-07-09T07:16:01;3.35;;;3.05;;
13419;SDS011;6781;58.440;15.470;2023-07-09T07:18:29;2.90;;;2.70;;
13419;SDS011;6781;58.440;15.470;2023-07-09T07:20:56;4.82;;;3.20;;
13419;SDS011;6781;58.440;15.470;2023-07-09T07:23:23;4.03;;;2.92;;
13419;SDS011;6781;58.440;15.470;2023-07-09T07:25:52;3.17;;;2.70;;
13419;SDS011;6781;58.440;15.470;2023-07-09T07:28:19;2.92;;;2.63;;
13419;SDS011;6781;58.440;15.470;2023-07-09T07:30:56;4.18;;;2.63;;
13419;SDS011;6781;58.440;15.470;2023-07-09T07:33:27;2.65;;;2.45;;
13419;SDS011;6781;58.440;15.470;2023-07-09T07:35:57;2.83;;;2.63;;
13419;SDS011;6781;58.440;15.470;2023-07-09T07:38:26;2.95;;;2.65;;
13419;SDS011;6781;58.440;15.470;2023-07-09T07:40:54;3.08;;;2.78;;
13419;SDS011;6781;58.440;15.470;2023-07-09T07:43:21;3.10;;;2.42;;
13419;SDS011;6781;58.440;15.470;2023-07-09T07:45:49;2.83;;;2.63;;
13419;SDS011;6781;58.440;15.470;2023-07-09T07:48:16;3.47;;;2.30;;
13419;SDS011;6781;58.440;15.470;2023-07-09T07:50:44;3.10;;;2.80;;
13419;SDS011;6781;58.440;15.470;2023-07-09T07:53:13;3.17;;;2.97;;
13419;SDS011;6781;58.440;15.470;2023-07-09T07:55:40;2.78;;;2.58;;
13419;SDS011;6781;58.440;15.470;2023-07-09T07:58:10;2.58;;;2.33;;
13419;SDS011;6781;58.440;15.470;2023-07-09T08:00:38;2.90;;;2.70;;
13419;SDS011;6781;58.440;15.470;2023-07-09T08:03:26;5.30;;;2.88;;
13419;SDS011;6781;58.440;15.470;2023-07-09T08:05:54;4.00;;;2.10;;
13419;SDS011;6781;58.440;15.470;2023-07-09T08:08:21;2.80;;;2.60;;
13419;SDS011;6781;58.440;15.470;2023-07-09T08:10:49;2.55;;;2.35;;
13419;SDS011;6781;58.440;15.470;2023-07-09T08:13:18;2.50;;;2.30;;
13419;SDS011;6781;58.440;15.470;2023-07-09T08:15:45;2.88;;;2.15;;
13419;SDS011;6781;58.440;15.470;2023-07-09T08:18:16;2.30;;;2.20;;
13419;SDS011;6781;58.440;15.470;2023-07-09T08:20:48;2.75;;;2.55;;
13419;SDS011;6781;58.440;15.470;2023-07-09T08:23:15;2.40;;;2.20;;
13419;SDS011;6781;58.440;15.470;2023-07-09T08:25:52;2.40;;;2.10;;
13419;SDS011;6781;58.440;15.470;2023-07-09T08:28:21;2.67;;;2.47;;
13419;SDS011;6781;58.440;15.470;2023-07-09T08:30:51;2.75;;;2.55;;
13419;SDS011;6781;58.440;15.470;2023-07-09T08:33:19;4.03;;;2.40;;
13419;SDS011;6781;58.440;15.470;2023-07-09T08:35:48;2.42;;;2.20;;
13419;SDS011;6781;58.440;15.470;2023-07-09T08:38:16;2.60;;;2.40;;
13419;SDS011;6781;58.440;15.470;2023-07-09T08:40:47;2.25;;;2.08;;
13419;SDS011;6781;58.440;15.470;2023-07-09T08:43:25;2.47;;;2.28;;
13419;SDS011;6781;58.440;15.470;2023-07-09T08:46:02;2.30;;;2.20;;
13419;SDS011;6781;58.440;15.470;2023-07-09T08:48:33;2.13;;;2.03;;
13419;SDS011;6781;58.440;15.470;2023-07-09T08:51:04;2.50;;;2.30;;
13419;SDS011;6781;58.440;15.470;2023-07-09T08:53:38;2.10;;;2.00;;
13419;SDS011;6781;58.440;15.470;2023-07-09T08:56:10;2.15;;;1.92;;
13419;SDS011;6781;58.440;15.470;2023-07-09T08:58:38;2.70;;;1.92;;
13419;SDS011;6781;58.440;15.470;2023-07-09T09:01:11;2.30;;;2.10;;
13419;SDS011;6781;58.440;15.470;2023-07-09T09:03:46;2.28;;;2.03;;
13419;SDS011;6781;58.440;15.470;2023-07-09T09:06:16;2.30;;;2.10;;
13419;SDS011;6781;58.440;15.470;2023-07-09T09:08:47;2.40;;;2.20;;
13419;SDS011;6781;58.440;15.470;2023-07-09T09:11:29;1.88;;;1.77;;
13419;SDS011;6781;58.440;15.470;2023-07-09T09:14:18;2.22;;;2.03;;
13419;SDS011;6781;58.440;15.470;2023-07-09T09:16:56;2.20;;;1.85;;
13419;SDS011;6781;58.440;15.470;2023-07-09T09:19:28;2.10;;;1.90;;
13419;SDS011;6781;58.440;15.470;2023-07-09T09:22:06;1.85;;;1.75;;
13419;SDS011;6781;58.440;15.470;2023-07-09T09:24:37;1.65;;;1.55;;
13419;SDS011;6781;58.440;15.470;2023-07-09T09:27:13;2.47;;;1.88;;
13419;SDS011;6781;58.440;15.470;2023-07-09T09:29:42;1.70;;;1.60;;
13419;SDS011;6781;58.440;15.470;2023-07-09T09:32:15;1.70;;;1.60;;
13419;SDS011;6781;58.440;15.470;2023-07-09T09:34:52;2.10;;;1.90;;
13419;SDS011;6781;58.440;15.470;2023-07-09T09:37:24;1.90;;;1.80;;
13419;SDS011;6781;58.440;15.470;2023-07-09T09:39:58;2.35;;;1.60;;
13419;SDS011;6781;58.440;15.470;2023-07-09T09:42:26;1.83;;;1.63;;
13419;SDS011;6781;58.440;15.470;2023-07-09T09:44:56;1.92;;;1.80;;
13419;SDS011;6781;58.440;15.470;2023-07-09T09:47:25;1.67;;;1.58;;
13419;SDS011;6781;58.440;15.470;2023-07-09T09:49:53;1.90;;;1.80;;
13419;SDS011;6781;58.440;15.470;2023-07-09T09:52:24;1.90;;;1.80;;
13419;SDS011;6781;58.440;15.470;2023-07-09T09:55:01;1.52;;;1.40;;
13419;SDS011;6781;58.440;15.470;2023-07-09T09:57:32;1.90;;;1.67;;
13419;SDS011;6781;58.440;15.470;2023-07-09T10:00:00;2.10;;;1.58;;
13419;SDS011;6781;58.440;15.470;2023-07-09T10:02:27;1.70;;;1.60;;
13419;SDS011;6781;58.440;15.470;2023-07-09T10:04:54;1.50;;;1.40;;
13419;SDS011;6781;58.440;15.470;2023-07-09T10:07:22;1.75;;;1.40;;
13419;SDS011;6781;58.440;15.470;2023-07-09T10:09:54;1.60;;;1.40;;
13419;SDS011;6781;58.440;15.470;2023-07-09T10:15:25;1.40;;;1.35;;
13419;SDS011;6781;58.440;15.470;2023-07-09T10:18:06;1.27;;;1.20;;
13419;SDS011;6781;58.440;15.470;2023-07-09T10:20:41;1.52;;;1.40;;
13419;SDS011;6781;58.440;15.470;2023-07-09T10:23:16;2.55;;;1.50;;
13419;SDS011;6781;58.440;15.470;2023-07-09T10:25:53;1.25;;;1.20;;
13419;SDS011;6781;58.440;15.470;2023-07-09T10:28:31;1.45;;;1.42;;
13419;SDS011;6781;58.440;15.470;2023-07-09T10:31:13;1.33;;;1.23;;
13419;SDS011;6781;58.440;15.470;2023-07-09T10:33:48;1.40;;;1.30;;
13419;SDS011;6781;58.440;15.470;2023-07-09T10:36:26;1.30;;;1.30;;
13419;SDS011;6781;58.440;15.470;2023-07-09T10:39:02;2.25;;;1.48;;
13419;SDS011;6781;58.440;15.470;2023-07-09T10:41:33;1.65;;;1.55;;
13419;SDS011;6781;58.440;15.470;2023-07-09T10:44:04;1.80;;;1.70;;
13419;SDS011;6781;58.440;15.470;2023-07-09T10:46:40;2.00;;;1.55;;
13419;SDS011;6781;58.440;15.470;2023-07-09T10:49:12;1.90;;;1.40;;
13419;SDS011;6781;58.440;15.470;2023-07-09T10:51:43;1.33;;;1.30;;
13419;SDS011;6781;58.440;15.470;2023-07-09T10:54:18;1.60;;;1.50;;
13419;SDS011;6781;58.440;15.470;2023-07-09T10:56:56;1.60;;;1.40;;
13419;SDS011;6781;58.440;15.470;2023-07-09T10:59:29;1.58;;;1.48;;
13419;SDS011;6781;58.440;15.470;2023-07-09T11:02:01;1.77;;;1.50;;
13419;SDS011;6781;58.440;15.470;2023-07-09T11:04:43;2.22;;;1.40;;
13419;SDS011;6781;58.440;15.470;2023-07-09T11:07:14;1.38;;;1.23;;
13419;SDS011;6781;58.440;15.470;2023-07-09T11:09:46;1.58;;;1.35;;
13419;SDS011;6781;58.440;15.470;2023-07-09T11:12:18;1.95;;;1.48;;
13419;SDS011;6781;58.440;15.470;2023-07-09T11:14:52;1.52;;;1.42;;
13419;SDS011;6781;58.440;15.470;2023-07-09T11:17:29;3.30;;;1.38;;
13419;SDS011;6781;58.440;15.470;2023-07-09T11:20:14;1.65;;;1.55;;
13419;SDS011;6781;58.440;15.470;2023-07-09T11:22:50;1.65;;;1.40;;
13419;SDS011;6781;58.440;15.470;2023-07-09T11:25:26;2.08;;;1.40;;
13419;SDS011;6781;58.440;15.470;2023-07-09T11:28:01;1.83;;;1.73;;
13419;SDS011;6781;58.440;15.470;2023-07-09T11:30:30;1.50;;;1.40;;
13419;SDS011;6781;58.440;15.470;2023-07-09T11:33:00;1.48;;;1.45;;
13419;SDS011;6781;58.440;15.470;2023-07-09T11:35:42;1.67;;;1.45;;
13419;SDS011;6781;58.440;15.470;2023-07-09T11:38:15;1.25;;;1.20;;
13419;SDS011;6781;58.440;15.470;2023-07-09T11:40:48;1.48;;;1.40;;
13419;SDS011;6781;58.440;15.470;2023-07-09T11:43:26;1.40;;;1.30;;
13419;SDS011;6781;58.440;15.470;2023-07-09T11:45:55;1.23;;;1.20;;
13419;SDS011;6781;58.440;15.470;2023-07-09T11:48:33;1.25;;;1.25;;
13419;SDS011;6781;58.440;15.470;2023-07-09T11:51:08;1.20;;;1.20;;
13419;SDS011;6781;58.440;15.470;2023-07-09T11:53:41;1.60;;;1.50;;
13419;SDS011;6781;58.440;15.470;2023-07-09T11:56:13;1.40;;;1.30;;
13419;SDS011;6781;58.440;15.470;2023-07-09T11:58:47;1.60;;;1.50;;
13419;SDS011;6781;58.440;15.470;2023-07-09T12:01:16;1.40;;;1.30;;
13419;SDS011;6781;58.440;15.470;2023-07-09T12:03:46;1.30;;;1.20;;
13419;SDS011;6781;58.440;15.470;2023-07-09T12:06:17;1.25;;;1.17;;
13419;SDS011;6781;58.440;15.470;2023-07-09T12:08:47;1.20;;;1.10;;
13419;SDS011;6781;58.440;15.470;2023-07-09T12:11:20;1.17;;;1.17;;
13419;SDS011;6781;58.440;15.470;2023-07-09T12:13:49;1.40;;;1.27;;
13419;SDS011;6781;58.440;15.470;2023-07-09T12:16:24;1.58;;;1.48;;
13419;SDS011;6781;58.440;15.470;2023-07-09T12:18:54;1.08;;;1.08;;
13419;SDS011;6781;58.440;15.470;2023-07-09T12:21:21;1.40;;;1.30;;
13419;SDS011;6781;58.440;15.470;2023-07-09T12:23:49;1.13;;;1.02;;
13419;SDS011;6781;58.440;15.470;2023-07-09T12:26:18;1.38;;;1.27;;
13419;SDS011;6781;58.440;15.470;2023-07-09T12:28:51;1.23;;;1.13;;
13419;SDS011;6781;58.440;15.470;2023-07-09T12:31:21;1.40;;;1.30;;
13419;SDS011;6781;58.440;15.470;2023-07-09T12:33:52;1.10;;;1.10;;
13419;SDS011;6781;58.440;15.470;2023-07-09T12:36:23;1.10;;;1.10;;
13419;SDS011;6781;58.440;15.470;2023-07-09T12:38:52;1.38;;;1.30;;
13419;SDS011;6781;58.440;15.470;2023-07-09T12:41:24;1.13;;;1.13;;
13419;SDS011;6781;58.440;15.470;2023-07-09T12:43:54;1.27;;;1.13;;
13419;SDS011;6781;58.440;15.470;2023-07-09T12:46:23;1.55;;;1.40;;
13419;SDS011;6781;58.440;15.470;2023-07-09T12:48:53;1.92;;;1.20;;
13419;SDS011;6781;58.440;15.470;2023-07-09T12:51:23;0.90;;;0.90;;
13419;SDS011;6781;58.440;15.470;2023-07-09T12:54:00;1.40;;;1.30;;
13419;SDS011;6781;58.440;15.470;2023-07-09T12:56:33;1.33;;;1.33;;
13419;SDS011;6781;58.440;15.470;2023-07-09T12:59:01;1.25;;;1.20;;
13419;SDS011;6781;58.440;15.470;2023-07-09T13:01:32;1.40;;;1.30;;
13419;SDS011;6781;58.440;15.470;2023-07-09T13:04:03;1.45;;;1.35;;
13419;SDS011;6781;58.440;15.470;2023-07-09T13:06:35;1.40;;;1.30;;
13419;SDS011;6781;58.440;15.470;2023-07-09T13:09:09;1.50;;;1.40;;
13419;SDS011;6781;58.440;15.470;2023-07-09T13:11:45;0.95;;;0.95;;
13419;SDS011;6781;58.440;15.470;2023-07-09T13:14:16;2.33;;;1.30;;
13419;SDS011;6781;58.440;15.470;2023-07-09T13:16:45;1.15;;;1.15;;
13419;SDS011;6781;58.440;15.470;2023-07-09T13:19:14;1.23;;;1.20;;
13419;SDS011;6781;58.440;15.470;2023-07-09T13:21:41;1.35;;;1.27;;
13419;SDS011;6781;58.440;15.470;2023-07-09T13:24:11;2.90;;;1.67;;
13419;SDS011;6781;58.440;15.470;2023-07-09T13:26:41;1.45;;;1.45;;
13419;SDS011;6781;58.440;15.470;2023-07-09T13:29:10;1.35;;;1.25;;
13419;SDS011;6781;58.440;15.470;2023-07-09T13:31:40;2.28;;;1.40;;
13419;SDS011;6781;58.440;15.470;2023-07-09T13:34:08;1.70;;;1.60;;
13419;SDS011;6781;58.440;15.470;2023-07-09T13:36:46;2.03;;;1.38;;
13419;SDS011;6781;58.440;15.470;2023-07-09T13:39:13;1.67;;;1.38;;
13419;SDS011;6781;58.440;15.470;2023-07-09T13:41:41;1.67;;;1.58;;
13419;SDS011;6781;58.440;15.470;2023-07-09T13:44:12;1.67;;;1.58;;
13419;SDS011;6781;58.440;15.470;2023-07-09T13:46:41;1.60;;;1.50;;
13419;SDS011;6781;58.440;15.470;2023-07-09T13:49:12;2.05;;;1.70;;
13419;SDS011;6781;58.440;15.470;2023-07-09T13:51:44;1.63;;;1.50;;
13419;SDS011;6781;58.440;15.470;2023-07-09T13:54:14;1.42;;;1.40;;
13419;SDS011;6781;58.440;15.470;2023-07-09T13:56:44;1.60;;;1.50;;
13419;SDS011;6781;58.440;15.470;2023-07-09T13:59:13;1.20;;;1.20;;
13419;SDS011;6781;58.440;15.470;2023-07-09T14:01:42;1.42;;;1.33;;
13419;SDS011;6781;58.440;15.470;2023-07-09T14:04:10;1.45;;;1.40;;
13419;SDS011;6781;58.440;15.470;2023-07-09T14:06:43;2.17;;;1.30;;
13419;SDS011;6781;58.440;15.470;2023-07-09T14:09:12;1.42;;;1.33;;
13419;SDS011;6781;58.440;15.470;2023-07-09T14:11:44;1.70;;;1.23;;
13419;SDS011;6781;58.440;15.470;2023-07-09T14:14:19;1.40;;;1.30;;
13419;SDS011;6781;58.440;15.470;2023-07-09T14:16:55;1.50;;;1.40;;
13419;SDS011;6781;58.440;15.470;2023-07-09T14:19:24;1.48;;;1.38;;
13419;SDS011;6781;58.440;15.470;2023-07-09T14:22:04;1.75;;;1.65;;
13419;SDS011;6781;58.440;15.470;2023-07-09T14:25:17;1.70;;;1.60;;
13419;SDS011;6781;58.440;15.470;2023-07-09T14:27:50;1.60;;;1.50;;
13419;SDS011;6781;58.440;15.470;2023-07-09T14:30:20;1.52;;;1.50;;
13419;SDS011;6781;58.440;15.470;2023-07-09T14:32:50;1.52;;;1.42;;
13419;SDS011;6781;58.440;15.470;2023-07-09T14:35:20;1.67;;;1.35;;
13419;SDS011;6781;58.440;15.470;2023-07-09T14:37:52;1.63;;;1.52;;
13419;SDS011;6781;58.440;15.470;2023-07-09T14:40:21;1.40;;;1.30;;
13419;SDS011;6781;58.440;15.470;2023-07-09T14:42:49;1.73;;;1.20;;
13419;SDS011;6781;58.440;15.470;2023-07-09T14:45:20;2.15;;;1.70;;
13419;SDS011;6781;58.440;15.470;2023-07-09T14:47:50;1.33;;;1.30;;
13419;SDS011;6781;58.440;15.470;2023-07-09T14:50:18;1.52;;;1.42;;
13419;SDS011;6781;58.440;15.470;2023-07-09T14:52:46;1.85;;;1.45;;
13419;SDS011;6781;58.440;15.470;2023-07-09T14:55:16;1.55;;;1.40;;
13419;SDS011;6781;58.440;15.470;2023-07-09T14:57:46;1.35;;;1.25;;
13419;SDS011;6781;58.440;15.470;2023-07-09T15:00:15;2.08;;;1.48;;
13419;SDS011;6781;58.440;15.470;2023-07-09T15:02:48;1.60;;;1.50;;
13419;SDS011;6781;58.440;15.470;2023-07-09T15:05:19;1.42;;;1.40;;
13419;SDS011;6781;58.440;15.470;2023-07-09T15:07:51;1.00;;;1.00;;
13419;SDS011;6781;58.440;15.470;2023-07-09T15:10:22;1.80;;;1.70;;